createdAt,value
2019-03-31T00:00:35.038Z,99.90
2019-03-31T00:03:08.272Z,99.90
2019-03-31T00:05:40.349Z,99.90
2019-03-31T00:08:12.729Z,99.90
2019-03-31T00:10:44.787Z,99.90
2019-03-31T00:13:17.361Z,99.90
2019-03-31T00:15:49.617Z,99.90
2019-03-31T00:18:21.972Z,99.90
2019-03-31T00:20:54.042Z,99.90
2019-03-31T00:23:26.098Z,99.90
2019-03-31T00:25:58.181Z,99.90
2019-03-31T00:28:30.199Z,99.90
2019-03-31T00:31:02.223Z,99.90
2019-03-31T00:33:34.233Z,99.90
2019-03-31T00:36:06.166Z,99.90
2019-03-31T00:38:38.118Z,99.90
2019-03-31T00:41:10.620Z,99.90
2019-03-31T00:43:42.833Z,99.90
2019-03-31T00:46:15.264Z,99.90
2019-03-31T00:48:47.294Z,99.90
2019-03-31T00:51:19.310Z,99.90
2019-03-31T00:53:51.418Z,99.90
2019-03-31T00:56:23.500Z,99.90
2019-03-31T00:58:55.772Z,99.90
2019-03-31T01:01:40.282Z,99.90
2019-03-31T01:04:13.439Z,99.90
2019-03-31T01:06:48.745Z,99.90
2019-03-31T01:09:28.801Z,99.90
2019-03-31T01:12:02.395Z,99.90
2019-03-31T01:14:35.160Z,99.90
2019-03-31T01:17:10.161Z,99.90
2019-03-31T01:19:42.188Z,99.90
2019-03-31T01:22:14.456Z,99.90
2019-03-31T01:24:46.830Z,99.90
2019-03-31T01:27:18.877Z,99.90
2019-03-31T01:29:51.351Z,99.90
2019-03-31T01:32:23.639Z,99.90
2019-03-31T01:34:57.474Z,99.90
2019-03-31T01:37:29.817Z,99.90
2019-03-31T01:40:02.491Z,99.90
2019-03-31T01:42:34.777Z,99.90
2019-03-31T01:45:07.520Z,99.90
2019-03-31T01:47:40.088Z,99.90
2019-03-31T01:50:14.886Z,99.90
2019-03-31T01:52:46.975Z,99.90
2019-03-31T01:55:19.195Z,99.90
2019-03-31T01:57:51.292Z,99.90
2019-03-31T02:00:39.171Z,99.90
2019-03-31T02:03:11.659Z,99.90
2019-03-31T02:05:44.037Z,99.90
2019-03-31T02:08:16.162Z,99.90
2019-03-31T02:10:48.793Z,99.90
2019-03-31T02:13:20.796Z,99.90
2019-03-31T02:15:52.855Z,99.90
2019-03-31T02:18:24.864Z,99.90
2019-03-31T02:20:57.355Z,99.90
2019-03-31T02:23:30.075Z,99.90
2019-03-31T02:26:02.079Z,99.90
2019-03-31T02:28:34.021Z,99.90
2019-03-31T02:31:08.768Z,99.90
2019-03-31T02:33:40.716Z,99.90
2019-03-31T02:36:14.072Z,99.90
2019-03-31T02:38:46.004Z,99.90
2019-03-31T02:41:19.584Z,99.90
2019-03-31T02:43:51.565Z,99.90
2019-03-31T02:46:23.736Z,99.90
2019-03-31T02:48:55.769Z,99.90
2019-03-31T02:51:27.995Z,99.90
2019-03-31T02:54:00.050Z,99.90
2019-03-31T02:56:34.114Z,99.90
2019-03-31T02:59:06.661Z,99.90
2019-03-31T03:01:39.433Z,99.90
2019-03-31T03:04:13.659Z,99.90
2019-03-31T03:06:47.567Z,99.90
2019-03-31T03:09:23.453Z,99.90
2019-03-31T03:11:58.870Z,99.90
2019-03-31T03:14:37.336Z,99.90
2019-03-31T03:17:09.826Z,99.90
2019-03-31T03:19:41.764Z,99.90
2019-03-31T03:22:13.868Z,99.90
2019-03-31T03:24:45.831Z,99.90
2019-03-31T03:27:17.796Z,99.90
2019-03-31T03:29:49.721Z,99.90
2019-03-31T03:32:21.772Z,99.90
2019-03-31T03:34:53.848Z,99.90
2019-03-31T03:37:25.908Z,99.90
2019-03-31T03:39:57.902Z,99.90
2019-03-31T03:42:30.197Z,99.90
2019-03-31T03:45:03.541Z,99.90
2019-03-31T03:47:35.564Z,99.90
2019-03-31T03:50:07.791Z,99.90
2019-03-31T03:52:39.852Z,99.90
2019-03-31T03:55:11.956Z,99.90
2019-03-31T03:57:43.935Z,99.90
2019-03-31T04:00:16.494Z,99.90
2019-03-31T04:02:48.533Z,99.90
2019-03-31T04:05:21.541Z,99.90
2019-03-31T04:07:53.546Z,99.90
2019-03-31T04:11:11.418Z,99.90
2019-03-31T04:13:43.533Z,99.90
2019-03-31T04:16:15.621Z,99.90
2019-03-31T04:18:48.347Z,99.90
2019-03-31T04:21:20.551Z,99.90
2019-03-31T04:23:52.619Z,99.90
2019-03-31T04:26:24.891Z,99.90
2019-03-31T04:28:56.976Z,99.90
2019-03-31T04:31:29.051Z,99.90
2019-03-31T04:34:01.030Z,99.90
2019-03-31T04:36:33.017Z,99.90
2019-03-31T04:39:07.004Z,99.90
2019-03-31T04:41:39.026Z,99.90
2019-03-31T04:44:10.987Z,99.90
2019-03-31T04:46:42.941Z,99.90
2019-03-31T04:49:14.919Z,99.90
2019-03-31T04:51:46.857Z,99.90
2019-03-31T04:54:19.140Z,99.90
2019-03-31T04:56:51.114Z,99.90
2019-03-31T04:59:23.442Z,99.90
2019-03-31T05:01:55.481Z,99.90
2019-03-31T05:04:27.453Z,99.90
2019-03-31T05:07:08.710Z,99.90
2019-03-31T05:09:40.937Z,99.90
2019-03-31T05:12:16.690Z,99.90
2019-03-31T05:14:47.050Z,99.90
2019-03-31T05:17:19.183Z,99.90
2019-03-31T05:19:51.507Z,99.90
2019-03-31T05:22:23.572Z,99.90
2019-03-31T05:24:56.214Z,99.90
2019-03-31T05:27:28.262Z,99.90
2019-03-31T05:30:00.586Z,99.90
2019-03-31T05:32:32.647Z,99.90
2019-03-31T05:35:04.925Z,99.90
2019-03-31T05:37:50.348Z,99.90
2019-03-31T05:40:10.844Z,99.90
2019-03-31T05:42:43.066Z,99.90
2019-03-31T05:45:15.281Z,99.90
2019-03-31T05:47:47.379Z,99.90
2019-03-31T05:50:19.382Z,99.90
2019-03-31T05:52:51.351Z,99.90
2019-03-31T05:55:23.297Z,99.90
2019-03-31T05:57:55.250Z,99.90
2019-03-31T06:00:40.125Z,99.90
2019-03-31T06:03:12.404Z,99.90
2019-03-31T06:05:44.570Z,99.90
2019-03-31T06:08:16.656Z,99.90
2019-03-31T06:10:49.297Z,99.90
2019-03-31T06:13:21.246Z,99.90
2019-03-31T06:15:53.659Z,99.90
2019-03-31T06:18:25.762Z,99.90
2019-03-31T06:20:57.827Z,99.90
2019-03-31T06:23:30.106Z,99.90
2019-03-31T06:26:02.129Z,99.90
2019-03-31T06:28:34.174Z,99.90
2019-03-31T06:31:06.260Z,99.90
2019-03-31T06:33:38.265Z,99.90
2019-03-31T06:36:10.302Z,99.90
2019-03-31T06:38:42.254Z,99.90
2019-03-31T06:41:14.704Z,99.90
2019-03-31T06:43:47.380Z,99.90
2019-03-31T06:46:19.447Z,99.90
2019-03-31T06:48:51.523Z,99.90
2019-03-31T06:51:23.506Z,99.90
2019-03-31T06:53:55.587Z,99.90
2019-03-31T06:56:27.734Z,99.90
2019-03-31T06:59:00.106Z,99.90
2019-03-31T07:01:32.096Z,99.90
2019-03-31T07:04:04.218Z,99.90
2019-03-31T07:06:36.194Z,99.90
2019-03-31T07:09:09.158Z,99.90
2019-03-31T07:11:41.442Z,99.90
2019-03-31T07:14:13.411Z,99.90
2019-03-31T07:16:45.514Z,99.90
2019-03-31T07:19:17.845Z,99.90
2019-03-31T07:21:49.955Z,99.90
2019-03-31T07:24:21.927Z,99.90
2019-03-31T07:26:54.195Z,99.90
2019-03-31T07:29:26.158Z,99.90
2019-03-31T07:31:59.178Z,99.90
2019-03-31T07:34:31.175Z,99.90
2019-03-31T07:37:03.107Z,99.90
2019-03-31T07:39:35.827Z,99.90
2019-03-31T07:42:08.329Z,99.90
2019-03-31T07:44:40.395Z,99.90
2019-03-31T07:47:12.618Z,99.90
2019-03-31T07:49:44.664Z,99.90
2019-03-31T07:52:17.000Z,99.90
2019-03-31T07:54:49.232Z,99.90
2019-03-31T07:57:21.237Z,99.90
2019-03-31T07:59:56.431Z,99.90
2019-03-31T08:02:27.484Z,99.90
2019-03-31T08:04:59.594Z,99.90
2019-03-31T08:07:31.688Z,97.00
2019-03-31T08:10:03.837Z,99.10
2019-03-31T08:12:35.914Z,97.60
2019-03-31T08:15:09.511Z,98.50
2019-03-31T08:17:42.857Z,96.30
2019-03-31T08:20:16.463Z,97.20
2019-03-31T08:22:48.671Z,98.90
2019-03-31T08:25:22.777Z,95.70
2019-03-31T08:27:54.830Z,97.00
2019-03-31T08:30:26.807Z,94.20
2019-03-31T08:32:58.872Z,92.90
2019-03-31T08:35:31.004Z,93.40
2019-03-31T08:38:03.410Z,91.30
2019-03-31T08:40:35.404Z,90.70
2019-03-31T08:43:07.465Z,89.20
2019-03-31T08:45:39.506Z,90.80
2019-03-31T08:48:11.552Z,90.10
2019-03-31T08:50:43.533Z,87.90
2019-03-31T08:53:15.621Z,85.30
2019-03-31T08:55:47.562Z,92.30
2019-03-31T08:58:19.694Z,82.30
2019-03-31T09:00:57.713Z,80.40
2019-03-31T09:03:29.698Z,73.10
2019-03-31T09:06:02.695Z,77.50
2019-03-31T09:08:35.102Z,76.20
2019-03-31T09:11:08.155Z,71.80
2019-03-31T09:13:40.310Z,76.80
2019-03-31T09:16:12.266Z,71.70
2019-03-31T09:18:44.204Z,75.50
2019-03-31T09:21:16.605Z,67.00
2019-03-31T09:23:48.563Z,72.40
2019-03-31T09:26:20.503Z,71.10
2019-03-31T09:28:52.593Z,69.30
2019-03-31T09:31:24.721Z,74.00
2019-03-31T09:33:56.794Z,69.00
2019-03-31T09:36:28.849Z,66.80
2019-03-31T09:39:00.844Z,69.50
2019-03-31T09:41:34.325Z,66.30
2019-03-31T09:44:07.226Z,64.50
2019-03-31T09:46:40.486Z,65.70
2019-03-31T09:49:12.546Z,64.50
2019-03-31T09:51:44.542Z,61.30
2019-03-31T09:54:16.677Z,60.80
2019-03-31T09:56:48.976Z,64.10
2019-03-31T09:59:21.052Z,60.60
2019-03-31T10:01:53.240Z,62.60
2019-03-31T10:04:25.657Z,60.80
2019-03-31T10:06:58.160Z,58.40
2019-03-31T10:09:30.751Z,59.30
2019-03-31T10:12:02.817Z,56.40
2019-03-31T10:14:34.795Z,55.90
2019-03-31T10:17:06.845Z,59.40
2019-03-31T10:19:39.465Z,58.30
2019-03-31T10:22:11.493Z,57.20
2019-03-31T10:24:43.460Z,53.30
2019-03-31T10:27:15.501Z,57.20
2019-03-31T10:29:47.475Z,56.40
2019-03-31T10:32:19.511Z,52.90
2019-03-31T10:34:51.473Z,51.50
2019-03-31T10:37:23.934Z,51.90
2019-03-31T10:39:55.921Z,50.30
2019-03-31T10:42:27.970Z,49.80
2019-03-31T10:45:00.020Z,52.20
2019-03-31T10:47:32.676Z,49.00
2019-03-31T10:50:05.561Z,48.90
2019-03-31T10:52:37.862Z,49.20
2019-03-31T10:55:10.610Z,49.50
2019-03-31T10:57:42.714Z,45.20
2019-03-31T11:00:19.034Z,43.30
2019-03-31T11:02:51.337Z,42.90
2019-03-31T11:05:23.405Z,42.90
2019-03-31T11:07:55.343Z,46.20
2019-03-31T11:10:27.508Z,42.30
2019-03-31T11:12:59.573Z,42.70
2019-03-31T11:15:31.620Z,42.50
2019-03-31T11:18:04.127Z,39.50
2019-03-31T11:20:36.664Z,41.90
2019-03-31T11:23:27.608Z,43.50
2019-03-31T11:25:59.739Z,42.00
2019-03-31T11:28:32.041Z,40.40
2019-03-31T11:31:04.540Z,37.30
2019-03-31T11:33:36.511Z,37.80
2019-03-31T11:36:08.567Z,38.90
2019-03-31T11:38:40.736Z,41.60
2019-03-31T11:41:12.819Z,38.50
2019-03-31T11:43:44.985Z,37.00
2019-03-31T11:46:18.092Z,38.00
2019-03-31T11:48:50.484Z,40.70
2019-03-31T11:51:22.559Z,37.80
2019-03-31T11:53:54.780Z,37.10
2019-03-31T11:56:26.931Z,41.10
2019-03-31T11:58:59.395Z,39.60
2019-03-31T12:01:31.500Z,39.00
2019-03-31T12:04:03.700Z,39.60
2019-03-31T12:06:35.701Z,39.60
2019-03-31T12:09:09.861Z,41.90
2019-03-31T12:11:45.385Z,41.00
2019-03-31T12:14:16.175Z,40.30
2019-03-31T12:16:48.532Z,40.90
2019-03-31T12:19:20.583Z,38.90
2019-03-31T12:21:52.599Z,41.00
2019-03-31T12:24:24.745Z,39.50
2019-03-31T12:26:56.850Z,38.90
2019-03-31T12:29:28.836Z,36.30
2019-03-31T12:32:01.568Z,37.50
2019-03-31T12:34:33.643Z,36.80
2019-03-31T12:37:05.903Z,36.00
2019-03-31T12:39:38.529Z,36.10
2019-03-31T12:42:10.851Z,39.80
2019-03-31T12:44:42.927Z,36.10
2019-03-31T12:47:15.476Z,38.70
2019-03-31T12:49:47.742Z,37.70
2019-03-31T12:52:19.752Z,40.20
2019-03-31T12:54:52.169Z,39.10
2019-03-31T12:57:24.241Z,39.50
2019-03-31T12:59:56.344Z,40.40
2019-03-31T13:02:28.370Z,39.20
2019-03-31T13:05:00.442Z,40.30
2019-03-31T13:07:32.475Z,39.40
2019-03-31T13:10:04.826Z,36.30
2019-03-31T13:12:37.000Z,38.10
2019-03-31T13:15:09.471Z,36.00
2019-03-31T13:17:41.645Z,35.50
2019-03-31T13:20:14.521Z,35.50
2019-03-31T13:22:46.602Z,36.10
2019-03-31T13:25:18.835Z,37.30
2019-03-31T13:27:50.943Z,39.20
2019-03-31T13:30:23.096Z,38.00
2019-03-31T13:32:55.245Z,37.00
2019-03-31T13:35:27.433Z,35.00
2019-03-31T13:38:10.355Z,36.70
2019-03-31T13:40:33.662Z,36.50
2019-03-31T13:43:05.948Z,37.70
2019-03-31T13:45:38.608Z,36.40
2019-03-31T13:48:11.034Z,37.00
2019-03-31T13:50:43.047Z,36.60
2019-03-31T13:53:16.926Z,35.70
2019-03-31T13:55:50.461Z,36.20
2019-03-31T13:58:23.968Z,36.90
2019-03-31T14:00:57.635Z,37.00
2019-03-31T14:03:31.350Z,35.60
2019-03-31T14:06:03.368Z,36.40
2019-03-31T14:08:35.445Z,36.40
2019-03-31T14:11:08.177Z,37.00
2019-03-31T14:13:40.544Z,38.30
2019-03-31T14:16:12.733Z,36.30
2019-03-31T14:18:44.819Z,36.30
2019-03-31T14:21:17.138Z,35.50
2019-03-31T14:23:49.319Z,36.40
2019-03-31T14:26:21.388Z,36.20
2019-03-31T14:28:53.412Z,35.80
2019-03-31T14:31:25.510Z,35.90
2019-03-31T14:33:57.694Z,36.30
2019-03-31T14:36:30.181Z,37.70
2019-03-31T14:39:05.444Z,36.60
2019-03-31T14:41:37.758Z,35.70
2019-03-31T14:44:10.831Z,35.10
2019-03-31T14:46:43.944Z,35.20
2019-03-31T14:49:16.486Z,35.10
2019-03-31T14:51:48.557Z,37.30
2019-03-31T14:54:20.945Z,39.60
2019-03-31T14:56:53.113Z,40.40
2019-03-31T14:59:25.285Z,40.20
2019-03-31T15:01:57.942Z,39.90
2019-03-31T15:04:29.952Z,40.30
2019-03-31T15:07:02.067Z,41.00
2019-03-31T15:09:34.147Z,42.30
2019-03-31T15:12:06.239Z,43.30
2019-03-31T15:14:38.330Z,43.50
2019-03-31T15:17:10.465Z,44.50
2019-03-31T15:19:42.521Z,43.60
2019-03-31T15:22:14.542Z,43.80
2019-03-31T15:24:46.554Z,45.50
2019-03-31T15:27:18.745Z,45.00
2019-03-31T15:29:51.900Z,46.10
2019-03-31T15:32:24.060Z,45.80
2019-03-31T15:34:56.521Z,47.10
2019-03-31T15:37:28.710Z,50.10
2019-03-31T15:40:01.090Z,50.20
2019-03-31T15:42:33.113Z,50.40
2019-03-31T15:45:05.749Z,52.10
2019-03-31T15:47:38.000Z,52.70
2019-03-31T15:50:10.635Z,52.30
2019-03-31T15:52:42.882Z,50.60
2019-03-31T15:55:15.520Z,50.80
2019-03-31T15:57:47.640Z,50.30
2019-03-31T16:00:20.709Z,50.20
2019-03-31T16:02:53.155Z,49.90
2019-03-31T16:05:25.377Z,49.20
2019-03-31T16:07:56.735Z,47.40
2019-03-31T16:10:29.065Z,46.70
2019-03-31T16:13:00.443Z,44.60
2019-03-31T16:15:31.995Z,44.60
2019-03-31T16:18:03.476Z,45.00
2019-03-31T16:20:34.739Z,44.60
2019-03-31T16:23:06.694Z,44.80
2019-03-31T16:25:40.663Z,45.00
2019-03-31T16:28:11.935Z,44.80
2019-03-31T16:30:43.499Z,45.40
2019-03-31T16:33:15.884Z,45.50
2019-03-31T16:35:48.374Z,45.20
2019-03-31T16:38:19.621Z,45.90
2019-03-31T16:40:51.014Z,46.70
2019-03-31T16:43:23.382Z,48.40
2019-03-31T16:45:54.745Z,49.40
2019-03-31T16:48:26.101Z,50.80
2019-03-31T16:50:57.488Z,52.00
2019-03-31T16:53:28.803Z,53.40
2019-03-31T16:56:02.000Z,54.70
2019-03-31T16:58:33.296Z,56.10
2019-03-31T17:01:05.080Z,56.70
2019-03-31T17:03:36.827Z,56.70
2019-03-31T17:06:08.913Z,56.80
2019-03-31T17:08:40.135Z,57.70
2019-03-31T17:11:11.366Z,57.10
2019-03-31T17:13:42.568Z,56.70
2019-03-31T17:16:15.533Z,57.90
2019-03-31T17:18:46.983Z,58.40
2019-03-31T17:21:18.343Z,59.60
2019-03-31T17:23:49.579Z,59.90
2019-03-31T17:26:20.908Z,62.30
2019-03-31T17:28:52.540Z,65.50
2019-03-31T17:31:23.910Z,69.10
2019-03-31T17:33:55.369Z,69.10
2019-03-31T17:36:26.724Z,71.50
2019-03-31T17:38:57.949Z,72.00
2019-03-31T17:41:29.212Z,72.80
2019-03-31T17:44:00.468Z,74.20
2019-03-31T17:46:31.816Z,76.20
2019-03-31T17:49:03.863Z,77.20
2019-03-31T17:51:35.167Z,77.70
2019-03-31T17:54:06.675Z,78.50
2019-03-31T17:56:37.834Z,80.10
2019-03-31T17:59:09.326Z,81.60
2019-03-31T18:01:41.043Z,84.30
2019-03-31T18:04:12.250Z,87.40
2019-03-31T18:06:43.601Z,88.60
2019-03-31T18:09:15.117Z,91.90
2019-03-31T18:11:46.591Z,93.10
2019-03-31T18:14:18.887Z,94.00
2019-03-31T18:16:50.242Z,94.90
2019-03-31T18:19:21.928Z,95.70
2019-03-31T18:21:53.681Z,98.00
2019-03-31T18:24:24.998Z,99.20
2019-03-31T18:26:56.308Z,99.90
2019-03-31T18:29:27.486Z,97.90
2019-03-31T18:31:58.849Z,96.30
2019-03-31T18:34:30.504Z,95.60
2019-03-31T18:37:01.774Z,94.00
2019-03-31T18:39:34.081Z,92.80
2019-03-31T18:42:05.445Z,91.80
2019-03-31T18:44:37.074Z,90.90
2019-03-31T18:47:08.476Z,90.50
2019-03-31T18:49:39.719Z,90.20
2019-03-31T18:52:11.300Z,89.80
2019-03-31T18:55:00.352Z,89.20
2019-03-31T18:57:39.812Z,88.90
2019-03-31T19:00:39.457Z,88.90
2019-03-31T19:03:31.575Z,88.50
2019-03-31T19:06:22.382Z,88.90
2019-03-31T19:08:59.796Z,88.70
2019-03-31T19:12:02.304Z,89.10
2019-03-31T19:14:52.482Z,89.00
2019-03-31T19:17:41.498Z,89.40
2019-03-31T19:20:27.955Z,89.60
2019-03-31T19:23:24.288Z,90.20
2019-03-31T19:26:13.317Z,90.20
2019-03-31T19:29:06.292Z,90.70
2019-03-31T19:31:55.966Z,91.10
2019-03-31T19:34:55.463Z,91.60
2019-03-31T19:37:48.526Z,92.50
2019-03-31T19:40:44.859Z,93.30
2019-03-31T19:43:33.187Z,94.30
2019-03-31T19:46:19.508Z,95.30
2019-03-31T19:49:05.536Z,96.40
2019-03-31T19:51:55.819Z,97.70
2019-03-31T19:54:58.439Z,98.70
2019-03-31T19:57:48.970Z,99.90
2019-03-31T20:00:33.614Z,99.90
2019-03-31T20:03:27.426Z,99.90
2019-03-31T20:06:16.324Z,99.90
2019-03-31T20:09:07.151Z,99.90
2019-03-31T20:11:52.122Z,99.90
2019-03-31T20:14:41.294Z,99.90
2019-03-31T20:17:33.761Z,99.90
2019-03-31T20:20:12.815Z,99.90
2019-03-31T20:23:01.997Z,99.90
2019-03-31T20:25:55.436Z,99.90
2019-03-31T20:29:04.353Z,99.90
2019-03-31T20:32:13.061Z,99.90
2019-03-31T20:35:01.726Z,99.90
2019-03-31T20:38:00.535Z,99.90
2019-03-31T20:40:50.614Z,99.90
2019-03-31T20:43:31.517Z,99.90
2019-03-31T20:46:04.523Z,99.90
2019-03-31T20:48:37.174Z,99.90
2019-03-31T20:51:08.845Z,99.90
2019-03-31T20:53:40.168Z,99.90
2019-03-31T20:56:11.707Z,99.90
2019-03-31T20:58:43.008Z,99.90
2019-03-31T21:01:14.698Z,99.90
2019-03-31T21:03:46.091Z,99.90
2019-03-31T21:06:17.383Z,99.90
2019-03-31T21:08:49.090Z,99.90
2019-03-31T21:11:20.289Z,99.90
2019-03-31T21:13:51.847Z,99.90
2019-03-31T21:16:23.164Z,99.90
2019-03-31T21:18:54.365Z,99.90
2019-03-31T21:21:25.861Z,99.90
2019-03-31T21:23:57.417Z,99.90
2019-03-31T21:26:28.823Z,99.90
2019-03-31T21:29:00.081Z,99.90
2019-03-31T21:31:31.350Z,99.90
2019-03-31T21:34:02.782Z,99.90
2019-03-31T21:36:34.150Z,99.90
2019-03-31T21:39:07.723Z,99.90
2019-03-31T21:41:40.441Z,99.90
2019-03-31T21:44:11.804Z,99.90
2019-03-31T21:46:43.228Z,99.90
2019-03-31T21:49:15.267Z,99.90
2019-03-31T21:51:46.626Z,99.90
2019-03-31T21:54:18.042Z,99.90
2019-03-31T21:56:49.324Z,99.90
2019-03-31T21:59:21.245Z,99.90
2019-03-31T22:01:52.642Z,99.90
2019-03-31T22:04:24.303Z,99.90
2019-03-31T22:06:55.458Z,99.90
2019-03-31T22:09:26.760Z,99.90
2019-03-31T22:11:57.930Z,99.90
2019-03-31T22:14:30.200Z,99.90
2019-03-31T22:17:01.464Z,99.90
2019-03-31T22:19:32.801Z,99.90
2019-03-31T22:22:04.329Z,99.90
2019-03-31T22:24:35.518Z,99.90
2019-03-31T22:27:06.998Z,99.90
2019-03-31T22:29:38.452Z,99.90
2019-03-31T22:32:10.140Z,99.90
2019-03-31T22:34:41.347Z,99.90
2019-03-31T22:37:12.574Z,99.90
2019-03-31T22:39:43.923Z,99.90
2019-03-31T22:42:16.467Z,99.90
2019-03-31T22:44:47.718Z,99.90
2019-03-31T22:47:19.352Z,99.90
2019-03-31T22:49:50.537Z,99.90
2019-03-31T22:52:21.777Z,99.90
2019-03-31T22:54:53.207Z,99.90
2019-03-31T22:57:24.610Z,99.90
2019-03-31T22:59:56.006Z,99.90
2019-03-31T23:02:27.446Z,99.90
2019-03-31T23:04:58.857Z,99.90
2019-03-31T23:07:30.437Z,99.90
2019-03-31T23:10:02.186Z,99.90
2019-03-31T23:12:33.731Z,99.90
2019-03-31T23:15:05.252Z,99.90
2019-03-31T23:17:36.728Z,99.90
2019-03-31T23:20:08.149Z,99.90
2019-03-31T23:22:39.756Z,99.90
2019-03-31T23:25:11.456Z,99.90
2019-03-31T23:27:42.894Z,99.90
2019-03-31T23:30:14.397Z,99.90
2019-03-31T23:32:45.556Z,99.90
2019-03-31T23:35:17.249Z,99.90
2019-03-31T23:37:48.373Z,99.90
2019-03-31T23:40:19.643Z,99.90
2019-03-31T23:42:51.188Z,99.90
2019-03-31T23:45:22.400Z,99.90
2019-03-31T23:47:54.559Z,99.90
2019-03-31T23:50:25.751Z,99.90
2019-03-31T23:52:56.846Z,99.90
2019-03-31T23:55:28.004Z,99.90
2019-03-31T23:57:59.156Z,99.90
